Terminal Aerodrome Forecast
Issued by NWS

Home | Current Version | Previous Version | Text Only | Print | Product List | Glossary On
Versions: 1 2 3 4 5 6 7 8 9 10 11 12 13 14 15 16 17 18 19 20 21 22 23 24 25 26 27 28 29
000
FTUS43 KGLD 030536
TAFMCK
TAF
KMCK 030536Z 0306/0406 16006KT P6SM SKC
     FM031000 VRB03KT 1SM BR BKN003
     FM031500 20008KT P6SM SCT010
     FM031800 19010G18KT P6SM SKC
     FM040300 16012G20KT P6SM SKC=

USA.gov is the U.S. government's official web portal to all federal, state and local government web resources and services.